Murdock, Florida
Current Conditions -  °F | °C
As of 3:53 PM on Tuesday 21 Oct 2014 (Local Time) from KPGD Reporting Station
Few Clouds Few Clouds  
Wind Chill: 82°   Ceiling: Unl
Heat Index: 87°   Visibility: 10mi
Dew Point: 72°   Wind: 13mph
Humidity: 71%   Direction: 210°SSW
Pressure: 29.92"   Gusts: NA
Location:  27.01°N, 82.15°W
Report Text: KPGD 211953Z 21011KT 10SM FEW017 28/22 A2992 RMK AO2 SLP134 T02780222
Loading
Personal Weather Stations






























Interactive Weather Map
Tropical Storm Tracking
New forecast layout! Learn more

10-Day Weather Forecast

Advertisements
Track Severe Weather on mobile